sensor_id;sensor_type;location;lat;lon;timestamp;P1;durP1;ratioP1;P2;durP2;ratioP2
74939;SDS011;63505;45.226;37.908;2022-10-17T00:00:51;5.80;;;2.13;;
74939;SDS011;63505;45.226;37.908;2022-10-17T00:03:17;4.53;;;2.53;;
74939;SDS011;63505;45.226;37.908;2022-10-17T00:05:44;4.10;;;2.00;;
74939;SDS011;63505;45.226;37.908;2022-10-17T00:08:11;4.70;;;2.53;;
74939;SDS011;63505;45.226;37.908;2022-10-17T00:10:38;4.63;;;2.70;;
74939;SDS011;63505;45.226;37.908;2022-10-17T00:13:05;4.72;;;2.28;;
74939;SDS011;63505;45.226;37.908;2022-10-17T00:15:32;5.32;;;1.98;;
74939;SDS011;63505;45.226;37.908;2022-10-17T00:17:58;6.38;;;2.72;;
74939;SDS011;63505;45.226;37.908;2022-10-17T00:20:24;7.88;;;2.88;;
74939;SDS011;63505;45.226;37.908;2022-10-17T00:22:50;3.88;;;2.00;;
74939;SDS011;63505;45.226;37.908;2022-10-17T00:25:16;5.50;;;2.30;;
74939;SDS011;63505;45.226;37.908;2022-10-17T00:27:42;4.50;;;1.92;;
74939;SDS011;63505;45.226;37.908;2022-10-17T00:30:12;4.82;;;2.50;;
74939;SDS011;63505;45.226;37.908;2022-10-17T00:32:39;3.75;;;2.00;;
74939;SDS011;63505;45.226;37.908;2022-10-17T00:35:05;7.88;;;2.45;;
74939;SDS011;63505;45.226;37.908;2022-10-17T00:37:32;4.47;;;2.20;;
74939;SDS011;63505;45.226;37.908;2022-10-17T00:39:59;3.72;;;2.20;;
74939;SDS011;63505;45.226;37.908;2022-10-17T00:42:25;4.95;;;2.40;;
74939;SDS011;63505;45.226;37.908;2022-10-17T00:45:06;5.65;;;2.50;;
74939;SDS011;63505;45.226;37.908;2022-10-17T00:48:08;3.30;;;1.95;;
74939;SDS011;63505;45.226;37.908;2022-10-17T00:50:34;7.18;;;2.30;;
74939;SDS011;63505;45.226;37.908;2022-10-17T00:53:03;3.50;;;2.03;;
74939;SDS011;63505;45.226;37.908;2022-10-17T00:55:32;5.10;;;2.65;;
74939;SDS011;63505;45.226;37.908;2022-10-17T00:58:02;7.70;;;2.30;;
74939;SDS011;63505;45.226;37.908;2022-10-17T01:00:30;3.75;;;2.30;;
74939;SDS011;63505;45.226;37.908;2022-10-17T01:02:57;5.38;;;2.63;;
74939;SDS011;63505;45.226;37.908;2022-10-17T01:05:23;3.70;;;2.15;;
74939;SDS011;63505;45.226;37.908;2022-10-17T01:07:49;7.72;;;2.70;;
74939;SDS011;63505;45.226;37.908;2022-10-17T01:10:17;5.47;;;1.83;;
74939;SDS011;63505;45.226;37.908;2022-10-17T01:12:59;8.77;;;2.30;;
74939;SDS011;63505;45.226;37.908;2022-10-17T01:15:48;4.10;;;2.28;;
74939;SDS011;63505;45.226;37.908;2022-10-17T01:31:36;5.75;;;2.75;;
74939;SDS011;63505;45.226;37.908;2022-10-17T01:34:13;4.57;;;2.70;;
74939;SDS011;63505;45.226;37.908;2022-10-17T01:36:53;5.85;;;2.95;;
74939;SDS011;63505;45.226;37.908;2022-10-17T01:42:14;4.43;;;2.67;;
74939;SDS011;63505;45.226;37.908;2022-10-17T01:45:02;6.00;;;2.67;;
74939;SDS011;63505;45.226;37.908;2022-10-17T01:47:38;3.50;;;2.20;;
74939;SDS011;63505;45.226;37.908;2022-10-17T01:52:57;4.50;;;2.50;;
74939;SDS011;63505;45.226;37.908;2022-10-17T01:55:31;8.77;;;2.70;;
74939;SDS011;63505;45.226;37.908;2022-10-17T01:58:09;2.85;;;2.00;;
74939;SDS011;63505;45.226;37.908;2022-10-17T02:00:39;6.35;;;2.58;;
74939;SDS011;63505;45.226;37.908;2022-10-17T02:03:08;6.60;;;2.47;;
74939;SDS011;63505;45.226;37.908;2022-10-17T02:05:39;6.47;;;2.35;;
74939;SDS011;63505;45.226;37.908;2022-10-17T02:08:08;5.10;;;2.13;;
74939;SDS011;63505;45.226;37.908;2022-10-17T02:10:38;6.78;;;2.85;;
74939;SDS011;63505;45.226;37.908;2022-10-17T02:16:17;4.68;;;2.38;;
74939;SDS011;63505;45.226;37.908;2022-10-17T02:19:17;4.18;;;2.22;;
74939;SDS011;63505;45.226;37.908;2022-10-17T02:24:49;5.07;;;2.28;;
74939;SDS011;63505;45.226;37.908;2022-10-17T02:32:38;5.30;;;2.22;;
74939;SDS011;63505;45.226;37.908;2022-10-17T02:35:22;4.63;;;2.10;;
74939;SDS011;63505;45.226;37.908;2022-10-17T02:37:52;5.13;;;2.00;;
74939;SDS011;63505;45.226;37.908;2022-10-17T02:40:20;7.65;;;2.17;;
74939;SDS011;63505;45.226;37.908;2022-10-17T02:42:50;6.60;;;1.95;;
74939;SDS011;63505;45.226;37.908;2022-10-17T02:53:21;4.65;;;2.38;;
74939;SDS011;63505;45.226;37.908;2022-10-17T02:55:56;4.68;;;1.63;;
74939;SDS011;63505;45.226;37.908;2022-10-17T02:58:26;3.47;;;1.75;;
74939;SDS011;63505;45.226;37.908;2022-10-17T03:00:57;5.22;;;2.40;;
74939;SDS011;63505;45.226;37.908;2022-10-17T03:03:24;4.55;;;2.03;;
74939;SDS011;63505;45.226;37.908;2022-10-17T03:05:52;3.80;;;2.13;;
74939;SDS011;63505;45.226;37.908;2022-10-17T03:08:22;5.50;;;2.92;;
74939;SDS011;63505;45.226;37.908;2022-10-17T03:10:48;3.45;;;1.88;;
74939;SDS011;63505;45.226;37.908;2022-10-17T03:13:15;5.65;;;2.60;;
74939;SDS011;63505;45.226;37.908;2022-10-17T03:15:41;4.80;;;1.83;;
74939;SDS011;63505;45.226;37.908;2022-10-17T03:18:07;5.32;;;2.25;;
74939;SDS011;63505;45.226;37.908;2022-10-17T03:20:34;13.95;;;3.10;;
74939;SDS011;63505;45.226;37.908;2022-10-17T03:23:00;3.38;;;1.40;;
74939;SDS011;63505;45.226;37.908;2022-10-17T03:25:27;6.65;;;2.33;;
74939;SDS011;63505;45.226;37.908;2022-10-17T03:27:53;5.60;;;1.92;;
74939;SDS011;63505;45.226;37.908;2022-10-17T03:30:19;4.22;;;2.20;;
74939;SDS011;63505;45.226;37.908;2022-10-17T03:32:45;5.00;;;1.90;;
74939;SDS011;63505;45.226;37.908;2022-10-17T03:35:11;4.22;;;2.13;;
74939;SDS011;63505;45.226;37.908;2022-10-17T03:37:38;4.15;;;1.77;;
74939;SDS011;63505;45.226;37.908;2022-10-17T03:40:04;4.47;;;1.85;;
74939;SDS011;63505;45.226;37.908;2022-10-17T03:42:30;3.75;;;1.83;;
74939;SDS011;63505;45.226;37.908;2022-10-17T03:44:56;4.55;;;2.33;;
74939;SDS011;63505;45.226;37.908;2022-10-17T03:47:22;3.75;;;1.70;;
74939;SDS011;63505;45.226;37.908;2022-10-17T03:49:49;4.25;;;1.73;;
74939;SDS011;63505;45.226;37.908;2022-10-17T03:52:18;2.70;;;1.80;;
74939;SDS011;63505;45.226;37.908;2022-10-17T03:54:44;3.45;;;1.88;;
74939;SDS011;63505;45.226;37.908;2022-10-17T03:57:10;4.40;;;1.80;;
74939;SDS011;63505;45.226;37.908;2022-10-17T03:59:36;3.50;;;1.70;;
74939;SDS011;63505;45.226;37.908;2022-10-17T04:04:37;4.43;;;1.75;;
74939;SDS011;63505;45.226;37.908;2022-10-17T04:07:03;4.95;;;2.00;;
74939;SDS011;63505;45.226;37.908;2022-10-17T04:09:30;5.13;;;2.38;;
74939;SDS011;63505;45.226;37.908;2022-10-17T04:12:09;2.47;;;1.35;;
74939;SDS011;63505;45.226;37.908;2022-10-17T04:14:36;2.60;;;1.23;;
74939;SDS011;63505;45.226;37.908;2022-10-17T04:17:03;5.35;;;2.03;;
74939;SDS011;63505;45.226;37.908;2022-10-17T04:19:30;5.28;;;2.47;;
74939;SDS011;63505;45.226;37.908;2022-10-17T04:21:56;3.63;;;1.90;;
74939;SDS011;63505;45.226;37.908;2022-10-17T04:24:22;5.22;;;2.15;;
74939;SDS011;63505;45.226;37.908;2022-10-17T04:27:11;4.45;;;2.30;;
74939;SDS011;63505;45.226;37.908;2022-10-17T04:29:42;4.47;;;2.28;;
74939;SDS011;63505;45.226;37.908;2022-10-17T04:32:19;5.20;;;2.45;;
74939;SDS011;63505;45.226;37.908;2022-10-17T04:34:54;4.40;;;2.60;;
74939;SDS011;63505;45.226;37.908;2022-10-17T04:37:21;3.95;;;2.05;;
74939;SDS011;63505;45.226;37.908;2022-10-17T04:39:49;6.28;;;2.72;;
74939;SDS011;63505;45.226;37.908;2022-10-17T04:42:15;8.85;;;3.75;;
74939;SDS011;63505;45.226;37.908;2022-10-17T04:44:41;10.45;;;4.03;;
74939;SDS011;63505;45.226;37.908;2022-10-17T04:47:07;9.77;;;4.47;;
74939;SDS011;63505;45.226;37.908;2022-10-17T04:49:33;12.93;;;5.07;;
74939;SDS011;63505;45.226;37.908;2022-10-17T04:52:07;8.93;;;5.32;;
74939;SDS011;63505;45.226;37.908;2022-10-17T04:54:51;15.55;;;7.18;;
74939;SDS011;63505;45.226;37.908;2022-10-17T04:57:18;16.73;;;8.38;;
74939;SDS011;63505;45.226;37.908;2022-10-17T05:00:07;23.05;;;10.13;;
74939;SDS011;63505;45.226;37.908;2022-10-17T05:02:54;20.20;;;9.95;;
74939;SDS011;63505;45.226;37.908;2022-10-17T05:05:20;20.40;;;9.15;;
74939;SDS011;63505;45.226;37.908;2022-10-17T05:07:48;12.82;;;6.28;;
74939;SDS011;63505;45.226;37.908;2022-10-17T05:10:21;9.30;;;4.57;;
74939;SDS011;63505;45.226;37.908;2022-10-17T05:12:50;9.90;;;3.67;;
74939;SDS011;63505;45.226;37.908;2022-10-17T05:15:19;7.18;;;3.47;;
74939;SDS011;63505;45.226;37.908;2022-10-17T05:17:45;6.30;;;3.00;;
74939;SDS011;63505;45.226;37.908;2022-10-17T05:20:12;7.30;;;3.20;;
74939;SDS011;63505;45.226;37.908;2022-10-17T05:22:39;4.25;;;2.28;;
74939;SDS011;63505;45.226;37.908;2022-10-17T05:25:05;3.65;;;2.05;;
74939;SDS011;63505;45.226;37.908;2022-10-17T05:27:32;4.72;;;2.17;;
74939;SDS011;63505;45.226;37.908;2022-10-17T05:29:58;5.88;;;2.00;;
74939;SDS011;63505;45.226;37.908;2022-10-17T05:32:27;3.78;;;2.72;;
74939;SDS011;63505;45.226;37.908;2022-10-17T05:34:53;6.80;;;2.53;;
74939;SDS011;63505;45.226;37.908;2022-10-17T05:37:22;5.35;;;2.88;;
74939;SDS011;63505;45.226;37.908;2022-10-17T05:39:50;4.28;;;2.17;;
74939;SDS011;63505;45.226;37.908;2022-10-17T05:42:16;4.32;;;2.42;;
74939;SDS011;63505;45.226;37.908;2022-10-17T05:44:44;4.65;;;2.40;;
74939;SDS011;63505;45.226;37.908;2022-10-17T05:47:12;6.50;;;2.85;;
74939;SDS011;63505;45.226;37.908;2022-10-17T05:49:37;8.02;;;2.83;;
74939;SDS011;63505;45.226;37.908;2022-10-17T05:52:04;7.32;;;3.17;;
74939;SDS011;63505;45.226;37.908;2022-10-17T05:54:35;9.93;;;3.60;;
74939;SDS011;63505;45.226;37.908;2022-10-17T05:57:01;7.00;;;2.85;;
74939;SDS011;63505;45.226;37.908;2022-10-17T05:59:30;7.03;;;3.83;;
74939;SDS011;63505;45.226;37.908;2022-10-17T06:04:31;5.53;;;2.88;;
74939;SDS011;63505;45.226;37.908;2022-10-17T06:06:58;8.32;;;4.28;;
74939;SDS011;63505;45.226;37.908;2022-10-17T06:09:24;9.55;;;4.28;;
74939;SDS011;63505;45.226;37.908;2022-10-17T06:11:52;4.38;;;2.47;;
74939;SDS011;63505;45.226;37.908;2022-10-17T06:14:19;5.68;;;2.28;;
74939;SDS011;63505;45.226;37.908;2022-10-17T06:16:50;4.78;;;2.28;;
74939;SDS011;63505;45.226;37.908;2022-10-17T06:19:16;6.15;;;2.83;;
74939;SDS011;63505;45.226;37.908;2022-10-17T06:21:42;5.53;;;2.45;;
74939;SDS011;63505;45.226;37.908;2022-10-17T06:24:11;5.82;;;2.22;;
74939;SDS011;63505;45.226;37.908;2022-10-17T06:26:40;5.95;;;2.85;;
74939;SDS011;63505;45.226;37.908;2022-10-17T06:29:07;6.55;;;2.33;;
74939;SDS011;63505;45.226;37.908;2022-10-17T06:31:39;2.88;;;1.27;;
74939;SDS011;63505;45.226;37.908;2022-10-17T06:34:05;6.32;;;2.10;;
74939;SDS011;63505;45.226;37.908;2022-10-17T06:36:31;5.47;;;1.92;;
74939;SDS011;63505;45.226;37.908;2022-10-17T06:38:58;6.50;;;1.98;;
74939;SDS011;63505;45.226;37.908;2022-10-17T06:41:34;5.57;;;2.13;;
74939;SDS011;63505;45.226;37.908;2022-10-17T06:44:04;6.93;;;2.30;;
74939;SDS011;63505;45.226;37.908;2022-10-17T06:46:48;8.77;;;2.30;;
74939;SDS011;63505;45.226;37.908;2022-10-17T06:49:16;4.63;;;2.42;;
74939;SDS011;63505;45.226;37.908;2022-10-17T06:51:58;5.82;;;2.60;;
74939;SDS011;63505;45.226;37.908;2022-10-17T06:54:33;4.55;;;2.10;;
74939;SDS011;63505;45.226;37.908;2022-10-17T06:57:17;6.47;;;2.58;;
74939;SDS011;63505;45.226;37.908;2022-10-17T06:59:51;4.72;;;2.05;;
74939;SDS011;63505;45.226;37.908;2022-10-17T07:02:24;3.90;;;2.20;;
74939;SDS011;63505;45.226;37.908;2022-10-17T07:04:52;6.55;;;1.90;;
74939;SDS011;63505;45.226;37.908;2022-10-17T07:07:17;3.55;;;1.58;;
74939;SDS011;63505;45.226;37.908;2022-10-17T07:09:44;4.20;;;1.98;;
74939;SDS011;63505;45.226;37.908;2022-10-17T07:12:10;7.78;;;2.70;;
74939;SDS011;63505;45.226;37.908;2022-10-17T07:14:41;8.18;;;2.97;;
74939;SDS011;63505;45.226;37.908;2022-10-17T07:17:07;6.07;;;2.67;;
74939;SDS011;63505;45.226;37.908;2022-10-17T07:19:34;7.95;;;3.03;;
74939;SDS011;63505;45.226;37.908;2022-10-17T07:22:01;4.60;;;2.38;;
74939;SDS011;63505;45.226;37.908;2022-10-17T07:24:27;6.47;;;2.88;;
74939;SDS011;63505;45.226;37.908;2022-10-17T07:27:00;9.93;;;3.80;;
74939;SDS011;63505;45.226;37.908;2022-10-17T07:29:26;4.20;;;1.88;;
74939;SDS011;63505;45.226;37.908;2022-10-17T07:32:15;13.25;;;3.45;;
74939;SDS011;63505;45.226;37.908;2022-10-17T07:34:41;6.60;;;3.10;;
74939;SDS011;63505;45.226;37.908;2022-10-17T07:37:08;7.22;;;2.88;;
74939;SDS011;63505;45.226;37.908;2022-10-17T07:39:36;8.55;;;2.75;;
74939;SDS011;63505;45.226;37.908;2022-10-17T07:42:04;9.85;;;2.72;;
74939;SDS011;63505;45.226;37.908;2022-10-17T07:44:33;7.28;;;2.97;;
74939;SDS011;63505;45.226;37.908;2022-10-17T07:47:00;6.53;;;3.13;;
74939;SDS011;63505;45.226;37.908;2022-10-17T07:49:27;9.77;;;3.13;;
74939;SDS011;63505;45.226;37.908;2022-10-17T07:51:53;10.63;;;3.90;;
74939;SDS011;63505;45.226;37.908;2022-10-17T07:54:19;7.47;;;2.45;;
74939;SDS011;63505;45.226;37.908;2022-10-17T07:56:45;5.63;;;2.63;;
74939;SDS011;63505;45.226;37.908;2022-10-17T07:59:17;8.27;;;3.28;;
74939;SDS011;63505;45.226;37.908;2022-10-17T08:01:43;6.28;;;3.13;;
74939;SDS011;63505;45.226;37.908;2022-10-17T08:04:10;7.47;;;2.90;;
74939;SDS011;63505;45.226;37.908;2022-10-17T08:06:35;6.05;;;3.08;;
74939;SDS011;63505;45.226;37.908;2022-10-17T08:09:02;15.25;;;7.38;;
74939;SDS011;63505;45.226;37.908;2022-10-17T08:11:28;12.80;;;3.40;;
74939;SDS011;63505;45.226;37.908;2022-10-17T08:13:54;4.50;;;2.53;;
74939;SDS011;63505;45.226;37.908;2022-10-17T08:16:20;7.22;;;2.85;;
74939;SDS011;63505;45.226;37.908;2022-10-17T08:18:46;8.95;;;3.10;;
74939;SDS011;63505;45.226;37.908;2022-10-17T08:21:12;4.80;;;2.28;;
74939;SDS011;63505;45.226;37.908;2022-10-17T08:23:38;9.23;;;3.15;;
74939;SDS011;63505;45.226;37.908;2022-10-17T08:26:06;5.30;;;2.80;;
74939;SDS011;63505;45.226;37.908;2022-10-17T08:28:35;4.10;;;2.67;;
74939;SDS011;63505;45.226;37.908;2022-10-17T08:31:03;8.07;;;3.72;;
74939;SDS011;63505;45.226;37.908;2022-10-17T08:33:39;6.95;;;3.03;;
74939;SDS011;63505;45.226;37.908;2022-10-17T08:36:06;11.00;;;3.85;;
74939;SDS011;63505;45.226;37.908;2022-10-17T08:38:33;8.93;;;4.97;;
74939;SDS011;63505;45.226;37.908;2022-10-17T08:41:02;9.90;;;4.65;;
74939;SDS011;63505;45.226;37.908;2022-10-17T08:46:22;7.20;;;3.67;;
74939;SDS011;63505;45.226;37.908;2022-10-17T08:48:55;10.85;;;5.38;;
74939;SDS011;63505;45.226;37.908;2022-10-17T08:51:27;6.28;;;3.65;;
74939;SDS011;63505;45.226;37.908;2022-10-17T08:54:04;13.02;;;4.28;;
74939;SDS011;63505;45.226;37.908;2022-10-17T08:56:44;8.63;;;4.05;;
74939;SDS011;63505;45.226;37.908;2022-10-17T08:59:15;11.52;;;4.97;;
74939;SDS011;63505;45.226;37.908;2022-10-17T09:07:18;7.22;;;3.63;;
74939;SDS011;63505;45.226;37.908;2022-10-17T09:15:30;6.40;;;2.95;;
74939;SDS011;63505;45.226;37.908;2022-10-17T09:18:06;4.35;;;2.25;;
74939;SDS011;63505;45.226;37.908;2022-10-17T09:20:39;5.68;;;3.63;;
74939;SDS011;63505;45.226;37.908;2022-10-17T09:23:10;9.38;;;3.47;;
74939;SDS011;63505;45.226;37.908;2022-10-17T09:25:42;4.35;;;2.80;;
74939;SDS011;63505;45.226;37.908;2022-10-17T09:28:26;4.57;;;2.08;;
74939;SDS011;63505;45.226;37.908;2022-10-17T09:30:59;4.72;;;2.70;;
74939;SDS011;63505;45.226;37.908;2022-10-17T09:33:37;8.40;;;3.97;;
74939;SDS011;63505;45.226;37.908;2022-10-17T09:36:10;7.15;;;2.65;;
74939;SDS011;63505;45.226;37.908;2022-10-17T09:38:41;5.63;;;2.40;;
74939;SDS011;63505;45.226;37.908;2022-10-17T09:41:15;5.82;;;2.67;;
74939;SDS011;63505;45.226;37.908;2022-10-17T09:43:44;7.13;;;2.80;;
74939;SDS011;63505;45.226;37.908;2022-10-17T09:46:21;6.60;;;2.45;;
74939;SDS011;63505;45.226;37.908;2022-10-17T09:48:55;5.70;;;2.42;;
74939;SDS011;63505;45.226;37.908;2022-10-17T09:51:27;7.88;;;3.03;;
74939;SDS011;63505;45.226;37.908;2022-10-17T09:54:00;6.28;;;2.60;;
74939;SDS011;63505;45.226;37.908;2022-10-17T09:56:29;10.45;;;2.80;;
74939;SDS011;63505;45.226;37.908;2022-10-17T09:58:55;3.92;;;2.15;;
74939;SDS011;63505;45.226;37.908;2022-10-17T10:01:24;6.15;;;2.38;;
74939;SDS011;63505;45.226;37.908;2022-10-17T10:04:08;5.45;;;2.42;;
74939;SDS011;63505;45.226;37.908;2022-10-17T10:09:02;6.03;;;3.08;;
74939;SDS011;63505;45.226;37.908;2022-10-17T10:14:21;7.93;;;2.30;;
74939;SDS011;63505;45.226;37.908;2022-10-17T10:16:55;6.57;;;3.00;;
74939;SDS011;63505;45.226;37.908;2022-10-17T10:19:31;9.25;;;5.15;;
74939;SDS011;63505;45.226;37.908;2022-10-17T10:22:02;14.20;;;7.90;;
74939;SDS011;63505;45.226;37.908;2022-10-17T10:24:40;12.38;;;6.47;;
74939;SDS011;63505;45.226;37.908;2022-10-17T10:27:09;8.10;;;4.55;;
74939;SDS011;63505;45.226;37.908;2022-10-17T10:29:40;9.45;;;5.68;;
74939;SDS011;63505;45.226;37.908;2022-10-17T10:34:40;10.75;;;5.03;;
74939;SDS011;63505;45.226;37.908;2022-10-17T10:40:50;18.60;;;8.32;;
74939;SDS011;63505;45.226;37.908;2022-10-17T10:46:18;21.67;;;11.38;;
74939;SDS011;63505;45.226;37.908;2022-10-17T10:48:52;16.35;;;8.80;;
74939;SDS011;63505;45.226;37.908;2022-10-17T10:51:20;9.20;;;5.32;;
74939;SDS011;63505;45.226;37.908;2022-10-17T10:54:10;7.78;;;4.78;;
74939;SDS011;63505;45.226;37.908;2022-10-17T10:56:43;10.13;;;5.32;;
74939;SDS011;63505;45.226;37.908;2022-10-17T10:59:20;5.60;;;2.75;;
74939;SDS011;63505;45.226;37.908;2022-10-17T11:02:14;5.88;;;3.25;;
74939;SDS011;63505;45.226;37.908;2022-10-17T11:04:48;6.43;;;2.85;;
74939;SDS011;63505;45.226;37.908;2022-10-17T11:07:28;5.15;;;2.42;;
74939;SDS011;63505;45.226;37.908;2022-10-17T11:15:55;17.95;;;8.93;;
74939;SDS011;63505;45.226;37.908;2022-10-17T11:21:15;16.48;;;7.38;;
74939;SDS011;63505;45.226;37.908;2022-10-17T11:24:09;11.10;;;7.07;;
74939;SDS011;63505;45.226;37.908;2022-10-17T11:26:43;13.48;;;5.57;;
74939;SDS011;63505;45.226;37.908;2022-10-17T11:29:13;16.27;;;6.47;;
74939;SDS011;63505;45.226;37.908;2022-10-17T11:31:44;22.13;;;9.77;;
74939;SDS011;63505;45.226;37.908;2022-10-17T11:34:19;39.67;;;16.45;;
74939;SDS011;63505;45.226;37.908;2022-10-17T11:36:50;30.75;;;14.73;;
74939;SDS011;63505;45.226;37.908;2022-10-17T11:39:54;14.50;;;6.90;;
74939;SDS011;63505;45.226;37.908;2022-10-17T11:42:19;7.68;;;4.20;;
74939;SDS011;63505;45.226;37.908;2022-10-17T11:44:49;4.10;;;2.38;;
74939;SDS011;63505;45.226;37.908;2022-10-17T11:52:53;18.55;;;8.80;;
74939;SDS011;63505;45.226;37.908;2022-10-17T11:55:27;23.38;;;11.00;;
74939;SDS011;63505;45.226;37.908;2022-10-17T12:11:55;30.08;;;11.23;;
74939;SDS011;63505;45.226;37.908;2022-10-17T12:17:01;11.85;;;4.82;;
74939;SDS011;63505;45.226;37.908;2022-10-17T12:19:29;10.73;;;4.50;;
74939;SDS011;63505;45.226;37.908;2022-10-17T12:29:57;29.40;;;12.98;;
74939;SDS011;63505;45.226;37.908;2022-10-17T12:32:31;32.72;;;16.27;;
74939;SDS011;63505;45.226;37.908;2022-10-17T12:34:58;57.88;;;26.33;;
74939;SDS011;63505;45.226;37.908;2022-10-17T12:43:30;15.85;;;8.50;;
74939;SDS011;63505;45.226;37.908;2022-10-17T12:51:25;17.38;;;7.50;;
74939;SDS011;63505;45.226;37.908;2022-10-17T12:53:56;17.52;;;9.45;;
74939;SDS011;63505;45.226;37.908;2022-10-17T12:56:33;13.73;;;7.03;;
74939;SDS011;63505;45.226;37.908;2022-10-17T13:01:50;21.50;;;7.65;;
74939;SDS011;63505;45.226;37.908;2022-10-17T13:04:22;34.95;;;14.07;;
74939;SDS011;63505;45.226;37.908;2022-10-17T13:06:56;37.13;;;16.35;;
74939;SDS011;63505;45.226;37.908;2022-10-17T13:09:32;58.85;;;22.85;;
74939;SDS011;63505;45.226;37.908;2022-10-17T13:12:03;90.07;;;37.40;;
74939;SDS011;63505;45.226;37.908;2022-10-17T13:14:34;80.80;;;34.25;;
74939;SDS011;63505;45.226;37.908;2022-10-17T13:17:05;62.53;;;29.75;;
74939;SDS011;63505;45.226;37.908;2022-10-17T13:19:39;90.60;;;39.30;;
74939;SDS011;63505;45.226;37.908;2022-10-17T13:22:16;98.55;;;40.72;;
74939;SDS011;63505;45.226;37.908;2022-10-17T13:24:44;71.75;;;33.03;;
74939;SDS011;63505;45.226;37.908;2022-10-17T13:27:21;66.22;;;28.80;;
74939;SDS011;63505;45.226;37.908;2022-10-17T13:29:49;44.50;;;20.30;;
74939;SDS011;63505;45.226;37.908;2022-10-17T13:32:15;45.55;;;18.90;;
74939;SDS011;63505;45.226;37.908;2022-10-17T13:34:42;28.58;;;13.77;;
74939;SDS011;63505;45.226;37.908;2022-10-17T13:37:09;22.60;;;8.43;;
74939;SDS011;63505;45.226;37.908;2022-10-17T13:39:39;16.75;;;6.32;;
74939;SDS011;63505;45.226;37.908;2022-10-17T13:42:19;16.13;;;7.93;;
74939;SDS011;63505;45.226;37.908;2022-10-17T13:44:48;27.35;;;11.85;;
74939;SDS011;63505;45.226;37.908;2022-10-17T13:47:24;20.30;;;8.80;;
74939;SDS011;63505;45.226;37.908;2022-10-17T13:49:52;23.10;;;10.13;;
74939;SDS011;63505;45.226;37.908;2022-10-17T13:52:21;22.02;;;9.45;;
74939;SDS011;63505;45.226;37.908;2022-10-17T13:54:50;18.70;;;7.70;;
74939;SDS011;63505;45.226;37.908;2022-10-17T13:57:18;30.13;;;15.20;;
74939;SDS011;63505;45.226;37.908;2022-10-17T13:59:45;35.40;;;17.40;;
74939;SDS011;63505;45.226;37.908;2022-10-17T14:02:20;48.47;;;23.20;;
74939;SDS011;63505;45.226;37.908;2022-10-17T14:07:37;80.97;;;32.85;;
74939;SDS011;63505;45.226;37.908;2022-10-17T14:10:05;89.80;;;37.13;;
74939;SDS011;63505;45.226;37.908;2022-10-17T14:12:47;82.88;;;37.03;;
74939;SDS011;63505;45.226;37.908;2022-10-17T14:15:14;92.05;;;38.63;;
74939;SDS011;63505;45.226;37.908;2022-10-17T14:17:41;108.22;;;43.38;;
74939;SDS011;63505;45.226;37.908;2022-10-17T14:20:16;114.85;;;41.63;;
74939;SDS011;63505;45.226;37.908;2022-10-17T14:22:44;125.78;;;49.30;;
74939;SDS011;63505;45.226;37.908;2022-10-17T14:28:01;128.30;;;45.95;;
74939;SDS011;63505;45.226;37.908;2022-10-17T14:30:37;84.43;;;35.92;;
74939;SDS011;63505;45.226;37.908;2022-10-17T14:33:15;52.10;;;20.90;;
74939;SDS011;63505;45.226;37.908;2022-10-17T14:35:48;48.15;;;16.13;;
74939;SDS011;63505;45.226;37.908;2022-10-17T14:38:19;31.92;;;13.07;;
74939;SDS011;63505;45.226;37.908;2022-10-17T14:40:49;25.90;;;12.48;;
74939;SDS011;63505;45.226;37.908;2022-10-17T14:43:24;25.55;;;10.63;;
74939;SDS011;63505;45.226;37.908;2022-10-17T14:45:52;20.58;;;7.03;;
74939;SDS011;63505;45.226;37.908;2022-10-17T14:48:22;17.55;;;7.47;;
74939;SDS011;63505;45.226;37.908;2022-10-17T14:53:35;19.70;;;8.85;;
74939;SDS011;63505;45.226;37.908;2022-10-17T14:56:03;25.95;;;8.93;;
74939;SDS011;63505;45.226;37.908;2022-10-17T14:58:46;38.35;;;14.02;;
74939;SDS011;63505;45.226;37.908;2022-10-17T15:01:12;58.75;;;21.33;;
74939;SDS011;63505;45.226;37.908;2022-10-17T15:03:39;91.30;;;32.78;;
74939;SDS011;63505;45.226;37.908;2022-10-17T15:06:11;104.95;;;44.50;;
74939;SDS011;63505;45.226;37.908;2022-10-17T15:08:42;105.22;;;39.35;;
74939;SDS011;63505;45.226;37.908;2022-10-17T15:11:09;104.30;;;37.67;;
74939;SDS011;63505;45.226;37.908;2022-10-17T15:13:36;102.70;;;36.85;;
74939;SDS011;63505;45.226;37.908;2022-10-17T15:16:05;76.65;;;30.17;;
74939;SDS011;63505;45.226;37.908;2022-10-17T15:18:39;62.90;;;27.08;;
74939;SDS011;63505;45.226;37.908;2022-10-17T15:21:16;57.95;;;24.23;;
74939;SDS011;63505;45.226;37.908;2022-10-17T15:23:44;49.03;;;22.15;;
74939;SDS011;63505;45.226;37.908;2022-10-17T15:26:32;56.03;;;22.48;;
74939;SDS011;63505;45.226;37.908;2022-10-17T15:28:58;50.67;;;19.27;;
74939;SDS011;63505;45.226;37.908;2022-10-17T15:31:24;44.83;;;17.10;;
74939;SDS011;63505;45.226;37.908;2022-10-17T15:33:51;46.03;;;17.70;;
74939;SDS011;63505;45.226;37.908;2022-10-17T15:36:27;48.95;;;20.20;;
74939;SDS011;63505;45.226;37.908;2022-10-17T15:39:06;49.53;;;25.35;;
74939;SDS011;63505;45.226;37.908;2022-10-17T15:41:34;90.43;;;34.28;;
74939;SDS011;63505;45.226;37.908;2022-10-17T15:44:00;75.88;;;35.92;;
74939;SDS011;63505;45.226;37.908;2022-10-17T15:46:27;98.82;;;41.72;;
74939;SDS011;63505;45.226;37.908;2022-10-17T15:48:55;103.32;;;48.42;;
74939;SDS011;63505;45.226;37.908;2022-10-17T15:51:25;123.15;;;50.85;;
74939;SDS011;63505;45.226;37.908;2022-10-17T15:53:51;71.13;;;29.42;;
74939;SDS011;63505;45.226;37.908;2022-10-17T15:56:18;38.67;;;17.98;;
74939;SDS011;63505;45.226;37.908;2022-10-17T15:58:53;26.60;;;10.50;;
74939;SDS011;63505;45.226;37.908;2022-10-17T16:01:23;29.38;;;9.18;;
74939;SDS011;63505;45.226;37.908;2022-10-17T16:03:51;22.38;;;9.15;;
74939;SDS011;63505;45.226;37.908;2022-10-17T16:06:18;23.95;;;9.93;;
74939;SDS011;63505;45.226;37.908;2022-10-17T16:08:45;24.50;;;11.10;;
74939;SDS011;63505;45.226;37.908;2022-10-17T16:11:54;23.58;;;9.93;;
74939;SDS011;63505;45.226;37.908;2022-10-17T16:14:04;20.92;;;9.82;;
74939;SDS011;63505;45.226;37.908;2022-10-17T16:16:32;19.27;;;9.05;;
74939;SDS011;63505;45.226;37.908;2022-10-17T16:18:58;24.23;;;9.30;;
74939;SDS011;63505;45.226;37.908;2022-10-17T16:21:27;21.52;;;10.10;;
74939;SDS011;63505;45.226;37.908;2022-10-17T16:23:55;22.70;;;9.00;;
74939;SDS011;63505;45.226;37.908;2022-10-17T16:26:22;24.92;;;9.65;;
74939;SDS011;63505;45.226;37.908;2022-10-17T16:28:48;17.33;;;8.10;;
74939;SDS011;63505;45.226;37.908;2022-10-17T16:31:18;21.90;;;9.73;;
74939;SDS011;63505;45.226;37.908;2022-10-17T16:33:47;21.67;;;10.68;;
74939;SDS011;63505;45.226;37.908;2022-10-17T16:36:15;23.90;;;8.98;;
74939;SDS011;63505;45.226;37.908;2022-10-17T16:38:41;25.05;;;9.13;;
74939;SDS011;63505;45.226;37.908;2022-10-17T16:43:54;27.17;;;10.30;;
74939;SDS011;63505;45.226;37.908;2022-10-17T16:46:22;28.63;;;11.27;;
74939;SDS011;63505;45.226;37.908;2022-10-17T16:48:49;29.63;;;12.10;;
74939;SDS011;63505;45.226;37.908;2022-10-17T16:51:16;37.03;;;11.48;;
74939;SDS011;63505;45.226;37.908;2022-10-17T16:53:43;26.15;;;13.02;;
74939;SDS011;63505;45.226;37.908;2022-10-17T16:56:11;25.88;;;12.60;;
74939;SDS011;63505;45.226;37.908;2022-10-17T16:58:40;29.05;;;12.10;;
74939;SDS011;63505;45.226;37.908;2022-10-17T17:01:08;24.83;;;10.85;;